Pine, New Mexico
Current Conditions -  °F | °C
As of 1:53 PM on Tuesday 27 Jan 2015 (Local Time) from KLVS Reporting Station
Clear Clear  
Wind Chill: 64°   Ceiling: Unl
Heat Index: 64°   Visibility: 10mi
Dew Point: 22°   Wind: 16mph
Humidity: 20%   Direction: 190°S
Pressure: 30.2"   Gusts: NA
Location:  35.582°N, 105.558°W
Report Text: KLVS 272053Z AUTO 19014KT 10SM CLR 18/M06 A3020 RMK AO2 SLP158 T01781056 56030
Loading
Personal Weather Stations






























Interactive Weather Map New forecast layout! Learn more

10-Day Weather Forecast

Advertisements
Track Severe Weather on mobile